createdAt,value
2023-03-13T00:01:13.967Z,99.90
2023-03-13T00:03:42.141Z,99.90
2023-03-13T00:06:11.622Z,99.90
2023-03-13T00:08:39.695Z,99.90
2023-03-13T00:11:09.260Z,99.90
2023-03-13T00:13:37.448Z,99.90
2023-03-13T00:16:07.794Z,99.90
2023-03-13T00:18:35.896Z,99.90
2023-03-13T00:21:05.978Z,99.90
2023-03-13T00:23:37.046Z,99.90
2023-03-13T00:26:07.688Z,99.90
2023-03-13T00:28:37.392Z,99.90
2023-03-13T00:31:07.786Z,99.90
2023-03-13T00:33:36.438Z,99.90
2023-03-13T00:36:07.205Z,99.90
2023-03-13T00:38:37.180Z,99.90
2023-03-13T00:41:06.574Z,99.90
2023-03-13T00:43:36.642Z,99.90
2023-03-13T00:46:05.007Z,99.90
2023-03-13T00:48:33.608Z,99.90
2023-03-13T00:51:02.316Z,99.90
2023-03-13T00:53:30.978Z,99.90
2023-03-13T00:56:02.859Z,99.90
2023-03-13T00:58:33.291Z,99.90
2023-03-13T01:01:09.339Z,99.90
2023-03-13T01:03:37.964Z,99.90
2023-03-13T01:06:08.005Z,99.90
2023-03-13T01:08:36.688Z,99.90
2023-03-13T01:11:07.872Z,99.90
2023-03-13T01:13:37.071Z,99.90
2023-03-13T01:16:07.322Z,99.90
2023-03-13T01:18:36.502Z,99.90
2023-03-13T01:21:05.555Z,99.90
2023-03-13T01:23:33.602Z,99.90
2023-03-13T01:26:01.925Z,99.90
2023-03-13T01:28:31.311Z,99.90
2023-03-13T01:30:59.401Z,99.90
2023-03-13T01:33:27.728Z,99.90
2023-03-13T01:36:03.068Z,99.90
2023-03-13T01:38:31.082Z,99.90
2023-03-13T01:40:59.102Z,99.90
2023-03-13T01:43:29.484Z,99.90
2023-03-13T01:46:05.290Z,99.90
2023-03-13T01:48:38.976Z,99.90
2023-03-13T01:51:11.415Z,99.90
2023-03-13T01:53:44.606Z,99.90
2023-03-13T01:56:18.233Z,99.90
2023-03-13T01:58:46.875Z,99.90
2023-03-13T02:01:17.407Z,99.90
2023-03-13T02:03:45.752Z,99.90
2023-03-13T02:06:14.008Z,99.90
2023-03-13T02:08:45.627Z,99.90
2023-03-13T02:11:23.055Z,99.90
2023-03-13T02:13:52.117Z,99.90
2023-03-13T02:16:23.668Z,99.90
2023-03-13T02:18:52.149Z,99.90
2023-03-13T02:21:34.892Z,99.90
2023-03-13T02:24:09.340Z,99.90
2023-03-13T02:26:38.818Z,99.90
2023-03-13T02:29:06.891Z,99.90
2023-03-13T02:31:34.954Z,99.90
2023-03-13T02:34:03.651Z,99.90
2023-03-13T02:36:32.215Z,99.90
2023-03-13T02:39:05.219Z,99.90
2023-03-13T02:41:35.265Z,99.90
2023-03-13T02:44:05.826Z,99.90
2023-03-13T02:46:46.404Z,99.90
2023-03-13T02:49:25.983Z,99.90
2023-03-13T02:51:55.360Z,99.90
2023-03-13T02:54:27.725Z,99.90
2023-03-13T02:56:58.902Z,99.90
2023-03-13T02:59:28.371Z,99.90
2023-03-13T03:01:56.564Z,99.90
2023-03-13T03:04:26.128Z,99.90
2023-03-13T03:06:54.958Z,99.90
2023-03-13T03:09:24.058Z,99.90
2023-03-13T03:11:52.409Z,99.90
2023-03-13T03:14:20.624Z,99.90
2023-03-13T03:16:50.069Z,99.90
2023-03-13T03:19:18.145Z,99.90
2023-03-13T03:21:46.534Z,99.90
2023-03-13T03:24:14.459Z,99.90
2023-03-13T03:26:42.482Z,99.90
2023-03-13T03:29:10.980Z,99.90
2023-03-13T03:31:39.030Z,99.90
2023-03-13T03:34:08.392Z,99.90
2023-03-13T03:36:36.391Z,99.90
2023-03-13T03:39:05.312Z,99.90
2023-03-13T03:41:33.319Z,99.90
2023-03-13T03:44:01.279Z,99.90
2023-03-13T03:46:29.314Z,99.90
2023-03-13T03:48:57.469Z,99.90
2023-03-13T03:51:26.864Z,99.90
2023-03-13T03:53:54.895Z,99.90
2023-03-13T03:56:22.927Z,99.90
2023-03-13T03:58:50.938Z,99.90
2023-03-13T04:01:18.960Z,99.90
2023-03-13T04:03:48.386Z,99.90
2023-03-13T04:06:16.598Z,99.90
2023-03-13T04:08:45.956Z,99.90
2023-03-13T04:11:13.946Z,99.90
2023-03-13T04:13:41.947Z,99.90
2023-03-13T04:16:10.911Z,99.90
2023-03-13T04:18:39.088Z,99.90
2023-03-13T04:21:07.665Z,99.90
2023-03-13T04:23:35.734Z,99.90
2023-03-13T04:26:05.354Z,99.90
2023-03-13T04:28:33.370Z,99.90
2023-03-13T04:31:01.417Z,99.90
2023-03-13T04:33:29.578Z,99.90
2023-03-13T04:35:57.622Z,99.90
2023-03-13T04:38:25.696Z,99.90
2023-03-13T04:40:53.712Z,99.90
2023-03-13T04:43:23.071Z,99.90
2023-03-13T04:45:54.589Z,99.90
2023-03-13T04:48:22.870Z,99.90
2023-03-13T04:50:50.992Z,99.90
2023-03-13T04:53:19.371Z,99.90
2023-03-13T04:55:47.706Z,99.90
2023-03-13T04:58:15.655Z,99.90
2023-03-13T05:00:45.005Z,99.90
2023-03-13T05:03:13.074Z,99.90
2023-03-13T05:05:41.069Z,99.90
2023-03-13T05:08:10.911Z,99.90
2023-03-13T05:10:38.898Z,99.90
2023-03-13T05:13:06.943Z,99.90
2023-03-13T05:15:35.146Z,99.90
2023-03-13T05:18:04.976Z,99.90
2023-03-13T05:20:33.048Z,99.90
2023-03-13T05:23:01.126Z,99.90
2023-03-13T05:25:29.171Z,99.90
2023-03-13T05:27:57.219Z,99.90
2023-03-13T05:30:25.497Z,99.90
2023-03-13T05:32:53.543Z,99.90
2023-03-13T05:35:23.335Z,99.90
2023-03-13T05:37:51.598Z,99.90
2023-03-13T05:40:19.813Z,99.90
2023-03-13T05:42:47.850Z,99.90
2023-03-13T05:45:15.987Z,99.90
2023-03-13T05:47:43.993Z,99.90
2023-03-13T05:50:12.778Z,99.90
2023-03-13T05:52:42.119Z,99.90
2023-03-13T05:55:10.714Z,99.90
2023-03-13T05:57:39.454Z,99.90
2023-03-13T06:00:08.705Z,99.90
2023-03-13T06:02:36.727Z,99.90
2023-03-13T06:05:05.044Z,99.90
2023-03-13T06:07:33.081Z,99.90
2023-03-13T06:10:02.509Z,99.90
2023-03-13T06:12:30.600Z,99.90
2023-03-13T06:14:58.687Z,99.90
2023-03-13T06:17:26.712Z,99.90
2023-03-13T06:19:54.744Z,99.90
2023-03-13T06:22:22.822Z,99.90
2023-03-13T06:24:50.866Z,99.90
2023-03-13T06:27:20.267Z,99.90
2023-03-13T06:29:48.265Z,99.90
2023-03-13T06:32:16.502Z,99.90
2023-03-13T06:34:44.595Z,99.90
2023-03-13T06:37:12.744Z,99.90
2023-03-13T06:39:40.904Z,99.90
2023-03-13T06:42:09.208Z,99.90
2023-03-13T06:44:38.737Z,99.90
2023-03-13T06:47:07.126Z,99.90
2023-03-13T06:49:35.182Z,99.90
2023-03-13T06:52:03.240Z,99.90
2023-03-13T06:54:31.730Z,99.90
2023-03-13T06:56:59.816Z,99.90
2023-03-13T06:59:27.966Z,99.90
2023-03-13T07:01:57.326Z,99.90
2023-03-13T07:04:25.339Z,99.90
2023-03-13T07:06:53.393Z,99.90
2023-03-13T07:09:21.455Z,99.90
2023-03-13T07:11:49.457Z,99.90
2023-03-13T07:14:17.965Z,99.90
2023-03-13T07:16:46.466Z,99.90
2023-03-13T07:19:16.521Z,99.90
2023-03-13T07:21:45.147Z,99.90
2023-03-13T07:24:13.429Z,99.90
2023-03-13T07:26:48.665Z,99.90
2023-03-13T07:29:22.520Z,99.90
2023-03-13T07:31:50.665Z,99.90
2023-03-13T07:34:20.449Z,99.90
2023-03-13T07:36:48.564Z,99.90
2023-03-13T07:39:16.638Z,99.90
2023-03-13T07:41:44.764Z,99.90
2023-03-13T07:44:12.899Z,99.90
2023-03-13T07:46:41.007Z,99.90
2023-03-13T07:49:08.989Z,99.90
2023-03-13T07:51:43.842Z,99.90
2023-03-13T07:54:12.602Z,99.90
2023-03-13T07:56:41.402Z,99.90
2023-03-13T07:59:09.732Z,99.90
2023-03-13T08:01:38.011Z,99.90
2023-03-13T08:04:06.338Z,99.90
2023-03-13T08:06:36.850Z,99.90
2023-03-13T08:09:08.656Z,99.90
2023-03-13T08:11:36.886Z,99.90
2023-03-13T08:14:05.094Z,99.90
2023-03-13T08:16:35.141Z,99.90
2023-03-13T08:19:05.922Z,99.90
2023-03-13T08:21:36.194Z,99.90
2023-03-13T08:24:08.586Z,99.90
2023-03-13T08:26:38.075Z,99.90
2023-03-13T08:29:07.647Z,99.90
2023-03-13T08:31:37.714Z,99.90
2023-03-13T08:34:05.937Z,99.90
2023-03-13T08:36:35.671Z,99.90
2023-03-13T08:39:05.914Z,99.90
2023-03-13T08:41:37.210Z,99.90
2023-03-13T08:44:06.372Z,99.90
2023-03-13T08:46:36.897Z,99.90
2023-03-13T08:49:07.004Z,99.90
2023-03-13T08:51:35.935Z,99.90
2023-03-13T08:54:05.273Z,99.90
2023-03-13T08:56:35.542Z,99.90
2023-03-13T08:59:06.212Z,99.90
2023-03-13T09:01:36.643Z,99.90
2023-03-13T09:04:06.144Z,99.90
2023-03-13T09:06:35.135Z,99.90
2023-03-13T09:09:04.912Z,99.90
2023-03-13T09:11:33.952Z,99.90
2023-03-13T09:14:03.848Z,99.90
2023-03-13T09:16:33.985Z,99.90
2023-03-13T09:19:03.084Z,99.90
2023-03-13T09:21:32.844Z,99.90
2023-03-13T09:24:01.709Z,99.90
2023-03-13T09:26:30.146Z,99.90
2023-03-13T09:28:58.877Z,99.90
2023-03-13T09:31:42.956Z,99.90
2023-03-13T09:34:11.121Z,99.90
2023-03-13T09:36:39.358Z,99.90
2023-03-13T09:39:07.476Z,99.90
2023-03-13T09:41:40.806Z,99.90
2023-03-13T09:44:16.314Z,99.90
2023-03-13T09:46:51.817Z,99.90
2023-03-13T09:49:31.280Z,99.90
2023-03-13T09:52:13.274Z,99.90
2023-03-13T09:54:45.060Z,99.90
2023-03-13T09:57:20.746Z,99.90
2023-03-13T09:59:55.444Z,99.90
2023-03-13T10:02:30.984Z,99.90
2023-03-13T10:05:10.816Z,99.90
2023-03-13T10:07:39.729Z,99.90
2023-03-13T10:10:15.929Z,99.90
2023-03-13T10:12:48.246Z,99.90
2023-03-13T10:15:33.526Z,99.90
2023-03-13T10:18:15.097Z,99.90
2023-03-13T10:20:45.484Z,99.90
2023-03-13T10:23:20.059Z,99.90
2023-03-13T10:25:49.620Z,99.90
2023-03-13T10:28:23.054Z,99.90
2023-03-13T10:30:55.350Z,99.90
2023-03-13T10:33:28.349Z,99.90
2023-03-13T10:36:08.212Z,99.90
2023-03-13T10:38:47.679Z,99.90
2023-03-13T10:41:31.220Z,99.90
2023-03-13T10:44:02.692Z,99.90
2023-03-13T10:46:34.381Z,99.90
2023-03-13T10:49:06.773Z,99.90
2023-03-13T10:51:38.928Z,99.90
2023-03-13T10:54:23.909Z,99.90
2023-03-13T10:56:54.368Z,99.90
2023-03-13T10:59:25.797Z,99.90
2023-03-13T11:01:55.440Z,99.90
2023-03-13T11:04:33.501Z,99.90
2023-03-13T11:07:06.152Z,99.90
2023-03-13T11:09:34.315Z,99.90
2023-03-13T11:12:08.052Z,99.90
2023-03-13T11:14:36.836Z,99.90
2023-03-13T11:17:12.334Z,99.90
2023-03-13T11:19:53.604Z,99.90
2023-03-13T11:22:51.651Z,99.90
2023-03-13T11:25:24.268Z,99.90
2023-03-13T11:28:04.869Z,99.90
2023-03-13T11:30:50.122Z,99.90
2023-03-13T11:33:30.684Z,99.90
2023-03-13T11:36:05.971Z,99.90
2023-03-13T11:38:38.066Z,99.90
2023-03-13T11:41:25.837Z,99.90
2023-03-13T11:44:15.565Z,99.90
2023-03-13T11:46:51.075Z,99.90
2023-03-13T11:49:41.011Z,99.90
2023-03-13T11:52:25.402Z,99.90
2023-03-13T11:55:12.196Z,99.90
2023-03-13T11:57:49.073Z,99.90
2023-03-13T12:00:24.206Z,99.90
2023-03-13T12:02:57.778Z,99.90
2023-03-13T12:05:28.703Z,99.90
2023-03-13T12:08:04.677Z,99.90
2023-03-13T12:10:37.335Z,99.90
2023-03-13T12:13:08.764Z,99.90
2023-03-13T12:15:40.879Z,99.90
2023-03-13T12:18:18.609Z,99.90
2023-03-13T12:20:55.957Z,99.90
2023-03-13T12:23:35.722Z,99.90
2023-03-13T12:26:08.703Z,99.90
2023-03-13T12:28:40.814Z,99.90
2023-03-13T12:31:18.724Z,99.90
2023-03-13T12:33:53.029Z,99.90
2023-03-13T12:36:26.457Z,99.90
2023-03-13T12:39:01.647Z,99.90
2023-03-13T12:41:34.290Z,99.90
2023-03-13T12:44:09.279Z,99.90
2023-03-13T12:46:46.287Z,99.90
2023-03-13T12:49:54.736Z,99.90
2023-03-13T12:52:58.521Z,99.90
2023-03-13T12:55:52.701Z,99.90
2023-03-13T12:58:45.367Z,99.90
2023-03-13T13:01:20.697Z,99.90
2023-03-13T13:03:55.000Z,99.90
2023-03-13T13:06:23.679Z,99.70
2023-03-13T13:09:09.225Z,99.00
2023-03-13T13:11:48.380Z,99.00
2023-03-13T13:14:58.138Z,98.50
2023-03-13T13:17:57.635Z,99.00
2023-03-13T13:20:35.673Z,99.20
2023-03-13T13:23:35.205Z,99.20
2023-03-13T13:26:48.345Z,98.70
2023-03-13T13:29:59.144Z,98.30
2023-03-13T13:32:41.973Z,98.50
2023-03-13T13:35:31.247Z,99.30
2023-03-13T13:38:36.733Z,99.40
2023-03-13T13:41:24.008Z,98.90
2023-03-13T13:44:25.790Z,99.40
2023-03-13T13:46:56.293Z,99.50
2023-03-13T13:49:37.762Z,99.40
2023-03-13T13:52:36.727Z,99.30
2023-03-13T13:55:21.495Z,99.50
2023-03-13T13:57:51.273Z,99.90
2023-03-13T14:00:22.946Z,99.90
2023-03-13T14:02:52.965Z,99.90
2023-03-13T14:05:26.799Z,99.90
2023-03-13T14:08:00.229Z,99.80
2023-03-13T14:10:36.048Z,99.20
2023-03-13T14:13:12.568Z,97.70
2023-03-13T14:15:44.255Z,98.90
2023-03-13T14:18:17.470Z,97.70
2023-03-13T14:20:57.745Z,97.80
2023-03-13T14:23:40.015Z,97.30
2023-03-13T14:26:18.002Z,95.90
2023-03-13T14:28:48.293Z,96.30
2023-03-13T14:31:27.666Z,96.60
2023-03-13T14:33:57.163Z,97.40
2023-03-13T14:36:27.210Z,98.10
2023-03-13T14:38:57.830Z,97.30
2023-03-13T14:41:30.840Z,97.70
2023-03-13T14:44:06.344Z,97.80
2023-03-13T14:46:36.988Z,97.40
2023-03-13T14:49:15.502Z,98.00
2023-03-13T14:51:45.362Z,97.90
2023-03-13T14:54:29.217Z,97.90
2023-03-13T14:57:16.159Z,98.30
2023-03-13T14:59:44.741Z,98.70
2023-03-13T15:02:20.462Z,98.90
2023-03-13T15:05:01.152Z,99.50
2023-03-13T15:07:38.832Z,99.90
2023-03-13T15:10:21.263Z,99.90
2023-03-13T15:12:50.142Z,99.90
2023-03-13T15:15:18.773Z,99.90
2023-03-13T15:17:46.903Z,99.90
2023-03-13T15:20:16.190Z,99.90
2023-03-13T15:22:47.188Z,99.90
2023-03-13T15:25:18.120Z,99.90
2023-03-13T15:27:46.249Z,99.90
2023-03-13T15:30:17.117Z,99.90
2023-03-13T15:32:47.108Z,99.90
2023-03-13T15:35:33.839Z,99.90
2023-03-13T15:38:06.170Z,99.90
2023-03-13T15:40:34.437Z,99.90
2023-03-13T15:43:02.555Z,99.90
2023-03-13T15:45:30.651Z,99.90
2023-03-13T15:47:58.828Z,99.90
2023-03-13T15:50:30.814Z,99.90
2023-03-13T15:53:00.809Z,99.90
2023-03-13T15:55:31.083Z,99.90
2023-03-13T15:57:59.316Z,99.90
2023-03-13T16:00:28.431Z,99.90
2023-03-13T16:02:56.749Z,99.90
2023-03-13T16:05:24.991Z,99.90
2023-03-13T16:07:53.160Z,99.90
2023-03-13T16:10:25.647Z,99.90
2023-03-13T16:12:55.701Z,99.90
2023-03-13T16:15:23.823Z,99.90
2023-03-13T16:17:52.099Z,99.90
2023-03-13T16:20:23.796Z,99.90
2023-03-13T16:22:53.669Z,99.90
2023-03-13T16:25:22.345Z,99.90
2023-03-13T16:27:50.631Z,99.90
2023-03-13T16:30:24.446Z,99.90
2023-03-13T16:32:52.688Z,99.90
2023-03-13T16:35:21.261Z,99.90
2023-03-13T16:37:50.881Z,99.90
2023-03-13T16:40:22.384Z,99.90
2023-03-13T16:42:50.780Z,99.90
2023-03-13T16:45:21.199Z,99.90
2023-03-13T16:47:49.603Z,99.90
2023-03-13T16:50:27.238Z,99.90
2023-03-13T16:52:55.742Z,99.90
2023-03-13T16:55:28.694Z,99.90
2023-03-13T16:57:57.311Z,99.90
2023-03-13T17:00:29.194Z,99.90
2023-03-13T17:02:58.689Z,99.90
2023-03-13T17:05:27.308Z,99.90
2023-03-13T17:07:55.495Z,99.90
2023-03-13T17:10:25.998Z,99.90
2023-03-13T17:12:54.289Z,99.90
2023-03-13T17:15:22.942Z,99.90
2023-03-13T17:17:54.197Z,99.90
2023-03-13T17:20:24.579Z,99.90
2023-03-13T17:22:53.270Z,99.90
2023-03-13T17:25:21.361Z,99.90
2023-03-13T17:27:49.588Z,99.90
2023-03-13T17:30:24.095Z,99.90
2023-03-13T17:32:54.458Z,99.90
2023-03-13T17:35:23.363Z,99.90
2023-03-13T17:37:51.744Z,99.90
2023-03-13T17:40:22.763Z,99.90
2023-03-13T17:42:51.658Z,99.90
2023-03-13T17:45:20.304Z,99.90
2023-03-13T17:47:50.299Z,99.90
2023-03-13T17:50:21.616Z,99.90
2023-03-13T17:52:50.052Z,99.90
2023-03-13T17:55:18.748Z,99.90
2023-03-13T17:57:47.892Z,99.90
2023-03-13T18:00:22.752Z,99.90
2023-03-13T18:02:51.709Z,99.90
2023-03-13T18:05:21.606Z,99.90
2023-03-13T18:07:50.619Z,99.90
2023-03-13T18:10:21.680Z,99.90
2023-03-13T18:12:51.413Z,99.90
2023-03-13T18:15:20.078Z,99.90
2023-03-13T18:17:48.796Z,99.90
2023-03-13T18:20:19.027Z,99.90
2023-03-13T18:22:48.907Z,99.90
2023-03-13T18:25:26.593Z,99.90
2023-03-13T18:27:54.808Z,99.90
2023-03-13T18:30:24.840Z,99.90
2023-03-13T18:32:53.265Z,99.90
2023-03-13T18:35:21.558Z,99.90
2023-03-13T18:37:51.284Z,99.90
2023-03-13T18:40:21.614Z,99.90
2023-03-13T18:42:50.804Z,99.90
2023-03-13T18:45:21.298Z,99.90
2023-03-13T18:47:50.156Z,99.90
2023-03-13T18:50:26.642Z,99.90
2023-03-13T18:52:58.083Z,99.90
2023-03-13T18:55:28.079Z,99.90
2023-03-13T18:57:56.486Z,99.90
2023-03-13T19:00:27.079Z,99.90
2023-03-13T19:02:55.344Z,99.90
2023-03-13T19:05:24.522Z,99.90
2023-03-13T19:07:52.891Z,99.90
2023-03-13T19:10:26.305Z,99.90
2023-03-13T19:12:56.078Z,99.90
2023-03-13T19:15:28.595Z,99.90
2023-03-13T19:17:57.823Z,99.90
2023-03-13T19:20:26.192Z,99.90
2023-03-13T19:22:56.261Z,99.90
2023-03-13T19:25:29.420Z,99.90
2023-03-13T19:27:57.764Z,99.90
2023-03-13T19:30:28.346Z,99.90
2023-03-13T19:32:56.755Z,99.90
2023-03-13T19:35:25.574Z,99.90
2023-03-13T19:37:53.760Z,99.90
2023-03-13T19:40:24.208Z,99.90
2023-03-13T19:42:54.663Z,99.90
2023-03-13T19:45:22.966Z,99.90
2023-03-13T19:47:51.665Z,99.90
2023-03-13T19:50:21.418Z,99.90
2023-03-13T19:52:49.983Z,99.90
2023-03-13T19:55:18.403Z,99.90
2023-03-13T19:57:47.146Z,99.90
2023-03-13T20:00:22.088Z,99.90
2023-03-13T20:02:52.190Z,99.90
2023-03-13T20:05:20.496Z,99.90
2023-03-13T20:07:49.107Z,99.90
2023-03-13T20:10:17.656Z,99.90
2023-03-13T20:12:46.040Z,99.90
2023-03-13T20:15:14.844Z,99.90
2023-03-13T20:17:44.726Z,99.90
2023-03-13T20:20:13.992Z,99.90
2023-03-13T20:22:42.861Z,99.90
2023-03-13T20:25:11.926Z,99.90
2023-03-13T20:27:40.319Z,99.90
2023-03-13T20:30:09.844Z,99.90
2023-03-13T20:32:49.053Z,99.90
2023-03-13T20:35:26.919Z,99.90
2023-03-13T20:37:57.473Z,99.90
2023-03-13T20:40:25.739Z,99.90
2023-03-13T20:42:53.818Z,99.90
2023-03-13T20:45:22.098Z,99.90
2023-03-13T20:47:50.250Z,99.90
2023-03-13T20:50:19.825Z,99.90
2023-03-13T20:52:49.920Z,99.90
2023-03-13T20:55:18.782Z,99.90
2023-03-13T20:57:47.037Z,99.90
2023-03-13T21:00:15.869Z,99.90
2023-03-13T21:02:44.143Z,99.90
2023-03-13T21:05:12.323Z,99.90
2023-03-13T21:07:40.535Z,99.90
2023-03-13T21:10:11.759Z,99.90
2023-03-13T21:12:40.125Z,99.90
2023-03-13T21:15:10.067Z,99.90
2023-03-13T21:17:38.773Z,99.90
2023-03-13T21:20:11.615Z,99.90
2023-03-13T21:22:40.245Z,99.90
2023-03-13T21:25:11.300Z,99.90
2023-03-13T21:27:40.199Z,99.90
2023-03-13T21:30:10.429Z,99.90
2023-03-13T21:32:39.628Z,99.90
2023-03-13T21:35:09.537Z,99.90
2023-03-13T21:37:38.248Z,99.90
2023-03-13T21:40:09.822Z,99.90
2023-03-13T21:42:43.831Z,99.90
2023-03-13T21:45:13.220Z,99.90
2023-03-13T21:47:41.413Z,99.90
2023-03-13T21:50:11.761Z,99.90
2023-03-13T21:52:42.207Z,99.90
2023-03-13T21:55:12.728Z,99.90
2023-03-13T21:57:42.346Z,99.90
2023-03-13T22:00:13.999Z,99.90
2023-03-13T22:02:42.845Z,99.90
2023-03-13T22:05:11.076Z,99.90
2023-03-13T22:07:39.177Z,99.90
2023-03-13T22:10:07.958Z,99.90
2023-03-13T22:12:37.436Z,99.90
2023-03-13T22:15:08.298Z,99.90
2023-03-13T22:17:36.480Z,99.90
2023-03-13T22:20:05.445Z,99.90
2023-03-13T22:22:33.587Z,99.90
2023-03-13T22:25:01.696Z,99.90
2023-03-13T22:27:29.877Z,99.90
2023-03-13T22:29:58.093Z,99.90
2023-03-13T22:32:27.757Z,99.90
2023-03-13T22:34:55.928Z,99.90
2023-03-13T22:37:26.750Z,99.90
2023-03-13T22:39:55.078Z,99.90
2023-03-13T22:42:24.393Z,99.90
2023-03-13T22:44:55.078Z,99.90
2023-03-13T22:47:23.720Z,99.90
2023-03-13T22:49:53.757Z,99.90
2023-03-13T22:52:22.577Z,99.90
2023-03-13T22:54:50.637Z,99.90
2023-03-13T22:57:18.651Z,99.90
2023-03-13T22:59:46.853Z,99.90
2023-03-13T23:02:14.892Z,99.90
2023-03-13T23:04:43.126Z,99.90
2023-03-13T23:07:12.678Z,99.90
2023-03-13T23:09:40.792Z,99.90
2023-03-13T23:12:08.987Z,99.90
2023-03-13T23:14:37.140Z,99.90
2023-03-13T23:17:05.473Z,99.90
2023-03-13T23:19:35.551Z,99.90
2023-03-13T23:22:03.581Z,99.90
2023-03-13T23:24:33.112Z,99.90
2023-03-13T23:27:01.156Z,99.90
2023-03-13T23:29:29.248Z,99.90
2023-03-13T23:31:57.306Z,99.90
2023-03-13T23:34:25.372Z,99.90
2023-03-13T23:36:54.405Z,99.90
2023-03-13T23:39:22.513Z,99.90
2023-03-13T23:41:52.093Z,99.90
2023-03-13T23:44:20.181Z,99.90
2023-03-13T23:46:48.295Z,99.90
2023-03-13T23:49:16.715Z,99.90
2023-03-13T23:51:44.822Z,99.90
2023-03-13T23:54:12.898Z,99.90
2023-03-13T23:56:41.050Z,99.90
2023-03-13T23:59:10.503Z,99.90
